sensor_id;sensor_type;location;lat;lon;timestamp;pressure;altitude;pressure_sealevel;temperature;humidity
19777;BME280;10047;42.490;26.012;2023-05-03T00:00:14;99850.19;;;10.59;100.00
19777;BME280;10047;42.490;26.012;2023-05-03T00:02:41;99903.63;;;10.85;100.00
19777;BME280;10047;42.490;26.012;2023-05-03T00:05:09;99854.53;;;10.27;100.00
19777;BME280;10047;42.490;26.012;2023-05-03T00:07:36;99841.97;;;10.51;100.00
19777;BME280;10047;42.490;26.012;2023-05-03T00:10:02;99819.31;;;10.71;100.00
19777;BME280;10047;42.490;26.012;2023-05-03T00:12:28;99819.19;;;10.48;100.00
19777;BME280;10047;42.490;26.012;2023-05-03T00:14:53;99788.50;;;10.80;100.00
19777;BME280;10047;42.490;26.012;2023-05-03T00:17:19;99778.25;;;10.83;100.00
19777;BME280;10047;42.490;26.012;2023-05-03T00:19:44;99774.97;;;10.79;100.00
19777;BME280;10047;42.490;26.012;2023-05-03T00:22:10;99721.66;;;10.52;100.00
19777;BME280;10047;42.490;26.012;2023-05-03T00:24:36;99748.91;;;10.73;100.00
19777;BME280;10047;42.490;26.012;2023-05-03T00:27:03;99732.00;;;10.72;100.00
19777;BME280;10047;42.490;26.012;2023-05-03T00:29:28;99720.47;;;10.35;100.00
19777;BME280;10047;42.490;26.012;2023-05-03T00:31:54;99719.03;;;10.27;100.00
19777;BME280;10047;42.490;26.012;2023-05-03T00:34:19;99803.53;;;10.87;100.00
19777;BME280;10047;42.490;26.012;2023-05-03T00:36:57;99799.78;;;10.99;100.00
19777;BME280;10047;42.490;26.012;2023-05-03T00:39:23;99819.38;;;10.69;100.00
19777;BME280;10047;42.490;26.012;2023-05-03T00:41:48;99718.56;;;10.42;100.00
19777;BME280;10047;42.490;26.012;2023-05-03T00:44:14;99773.06;;;10.86;100.00
19777;BME280;10047;42.490;26.012;2023-05-03T00:46:39;99765.16;;;10.69;100.00
19777;BME280;10047;42.490;26.012;2023-05-03T00:49:05;99720.13;;;10.46;100.00
19777;BME280;10047;42.490;26.012;2023-05-03T00:51:30;100132.72;;;10.77;100.00
19777;BME280;10047;42.490;26.012;2023-05-03T00:53:57;100319.03;;;10.85;100.00
19777;BME280;10047;42.490;26.012;2023-05-03T00:56:22;100322.28;;;10.15;100.00
19777;BME280;10047;42.490;26.012;2023-05-03T00:58:50;100488.31;;;10.11;100.00
19777;BME280;10047;42.490;26.012;2023-05-03T01:01:16;100736.72;;;10.49;100.00
19777;BME280;10047;42.490;26.012;2023-05-03T01:03:42;100650.19;;;10.55;100.00
19777;BME280;10047;42.490;26.012;2023-05-03T01:09:02;100761.66;;;10.26;100.00
19777;BME280;10047;42.490;26.012;2023-05-03T01:11:41;100674.47;;;10.73;100.00
19777;BME280;10047;42.490;26.012;2023-05-03T01:14:21;100614.16;;;10.79;100.00
19777;BME280;10047;42.490;26.012;2023-05-03T01:16:52;100601.19;;;10.93;100.00
19777;BME280;10047;42.490;26.012;2023-05-03T01:19:36;100631.25;;;10.73;100.00
19777;BME280;10047;42.490;26.012;2023-05-03T01:25:12;100826.63;;;11.00;100.00
19777;BME280;10047;42.490;26.012;2023-05-03T01:27:39;100786.97;;;10.33;100.00
19777;BME280;10047;42.490;26.012;2023-05-03T01:30:07;100971.13;;;10.77;100.00
19777;BME280;10047;42.490;26.012;2023-05-03T01:37:38;101201.69;;;10.81;100.00
19777;BME280;10047;42.490;26.012;2023-05-03T01:40:07;101284.03;;;10.66;100.00
19777;BME280;10047;42.490;26.012;2023-05-03T01:42:35;101441.56;;;10.96;100.00
19777;BME280;10047;42.490;26.012;2023-05-03T01:45:03;101520.63;;;10.62;100.00
19777;BME280;10047;42.490;26.012;2023-05-03T01:47:28;101656.13;;;11.15;100.00
19777;BME280;10047;42.490;26.012;2023-05-03T01:49:54;101776.63;;;10.99;100.00
19777;BME280;10047;42.490;26.012;2023-05-03T01:52:19;101821.56;;;11.01;100.00
19777;BME280;10047;42.490;26.012;2023-05-03T01:54:45;101906.44;;;10.99;100.00
19777;BME280;10047;42.490;26.012;2023-05-03T01:57:10;102048.13;;;11.03;100.00
19777;BME280;10047;42.490;26.012;2023-05-03T01:59:36;102048.75;;;10.57;100.00
19777;BME280;10047;42.490;26.012;2023-05-03T02:02:07;102175.50;;;11.21;100.00
19777;BME280;10047;42.490;26.012;2023-05-03T02:04:32;102162.34;;;10.55;100.00
19777;BME280;10047;42.490;26.012;2023-05-03T02:06:58;102242.22;;;10.78;100.00
19777;BME280;10047;42.490;26.012;2023-05-03T02:09:24;102209.91;;;10.66;100.00
19777;BME280;10047;42.490;26.012;2023-05-03T02:11:49;102236.97;;;10.55;100.00
19777;BME280;10047;42.490;26.012;2023-05-03T02:14:15;102316.25;;;11.06;100.00
19777;BME280;10047;42.490;26.012;2023-05-03T02:16:40;102339.06;;;10.91;100.00
19777;BME280;10047;42.490;26.012;2023-05-03T02:19:06;102137.09;;;10.85;100.00
19777;BME280;10047;42.490;26.012;2023-05-03T02:21:33;102169.28;;;10.75;100.00
19777;BME280;10047;42.490;26.012;2023-05-03T02:23:58;102139.09;;;10.12;100.00
19777;BME280;10047;42.490;26.012;2023-05-03T02:26:24;102125.56;;;10.15;100.00
19777;BME280;10047;42.490;26.012;2023-05-03T02:28:50;102207.94;;;10.35;100.00
19777;BME280;10047;42.490;26.012;2023-05-03T02:31:15;102162.13;;;10.26;100.00
19777;BME280;10047;42.490;26.012;2023-05-03T02:33:41;102141.22;;;9.70;100.00
19777;BME280;10047;42.490;26.012;2023-05-03T02:36:06;102265.38;;;10.13;100.00
19777;BME280;10047;42.490;26.012;2023-05-03T02:38:32;102240.94;;;10.26;100.00
19777;BME280;10047;42.490;26.012;2023-05-03T02:40:57;102217.66;;;9.91;100.00
19777;BME280;10047;42.490;26.012;2023-05-03T02:43:24;102305.50;;;10.41;100.00
19777;BME280;10047;42.490;26.012;2023-05-03T02:45:49;102289.44;;;10.45;100.00
19777;BME280;10047;42.490;26.012;2023-05-03T02:48:14;102313.25;;;10.55;100.00
19777;BME280;10047;42.490;26.012;2023-05-03T02:50:41;102322.72;;;10.70;100.00
19777;BME280;10047;42.490;26.012;2023-05-03T02:53:06;102337.22;;;10.75;100.00
19777;BME280;10047;42.490;26.012;2023-05-03T02:55:32;102345.59;;;10.67;100.00
19777;BME280;10047;42.490;26.012;2023-05-03T02:57:57;102292.00;;;10.50;100.00
19777;BME280;10047;42.490;26.012;2023-05-03T03:00:23;102346.31;;;10.54;100.00
19777;BME280;10047;42.490;26.012;2023-05-03T03:02:48;102363.41;;;10.67;100.00
19777;BME280;10047;42.490;26.012;2023-05-03T03:05:14;102382.00;;;10.63;100.00
19777;BME280;10047;42.490;26.012;2023-05-03T03:07:40;102389.44;;;10.44;100.00
19777;BME280;10047;42.490;26.012;2023-05-03T03:10:06;102361.94;;;10.12;100.00
19777;BME280;10047;42.490;26.012;2023-05-03T03:12:34;102451.41;;;10.50;100.00
19777;BME280;10047;42.490;26.012;2023-05-03T03:15:00;102454.78;;;10.50;100.00
19777;BME280;10047;42.490;26.012;2023-05-03T03:17:25;102456.34;;;10.39;100.00
19777;BME280;10047;42.490;26.012;2023-05-03T03:19:50;102404.06;;;9.98;100.00
19777;BME280;10047;42.490;26.012;2023-05-03T03:22:16;102459.03;;;9.93;100.00
19777;BME280;10047;42.490;26.012;2023-05-03T03:24:41;102443.28;;;10.12;100.00
19777;BME280;10047;42.490;26.012;2023-05-03T03:27:07;102432.44;;;10.26;100.00
19777;BME280;10047;42.490;26.012;2023-05-03T03:29:34;102479.97;;;10.32;100.00
19777;BME280;10047;42.490;26.012;2023-05-03T03:32:00;102521.91;;;10.60;100.00
19777;BME280;10047;42.490;26.012;2023-05-03T03:34:25;102493.44;;;10.25;100.00
19777;BME280;10047;42.490;26.012;2023-05-03T03:36:51;102534.63;;;10.60;100.00
19777;BME280;10047;42.490;26.012;2023-05-03T03:39:16;102541.50;;;10.70;100.00
19777;BME280;10047;42.490;26.012;2023-05-03T03:41:42;102556.13;;;10.83;100.00
19777;BME280;10047;42.490;26.012;2023-05-03T03:44:07;102465.84;;;9.92;100.00
19777;BME280;10047;42.490;26.012;2023-05-03T03:46:33;102590.25;;;11.00;100.00
19777;BME280;10047;42.490;26.012;2023-05-03T03:48:58;102606.09;;;12.37;100.00
19777;BME280;10047;42.490;26.012;2023-05-03T03:51:23;102604.53;;;11.59;100.00
19777;BME280;10047;42.490;26.012;2023-05-03T03:53:50;102541.63;;;10.17;100.00
19777;BME280;10047;42.490;26.012;2023-05-03T03:56:15;102519.94;;;10.40;100.00
19777;BME280;10047;42.490;26.012;2023-05-03T03:58:41;102585.22;;;11.03;100.00
19777;BME280;10047;42.490;26.012;2023-05-03T04:01:06;102585.72;;;10.76;100.00
19777;BME280;10047;42.490;26.012;2023-05-03T04:03:32;102605.47;;;10.95;100.00
19777;BME280;10047;42.490;26.012;2023-05-03T04:05:57;102615.47;;;10.80;100.00
19777;BME280;10047;42.490;26.012;2023-05-03T04:08:23;102633.88;;;10.64;100.00
19777;BME280;10047;42.490;26.012;2023-05-03T04:10:48;102666.06;;;11.20;100.00
19777;BME280;10047;42.490;26.012;2023-05-03T04:13:14;102686.41;;;12.88;100.00
19777;BME280;10047;42.490;26.012;2023-05-03T04:15:39;102710.66;;;11.57;100.00
19777;BME280;10047;42.490;26.012;2023-05-03T04:18:05;102641.50;;;11.25;100.00
19777;BME280;10047;42.490;26.012;2023-05-03T04:20:30;102603.22;;;11.18;100.00
19777;BME280;10047;42.490;26.012;2023-05-03T04:22:57;102645.06;;;11.40;100.00
19777;BME280;10047;42.490;26.012;2023-05-03T04:25:22;102643.03;;;11.80;100.00
19777;BME280;10047;42.490;26.012;2023-05-03T04:27:50;102645.00;;;11.35;100.00
19777;BME280;10047;42.490;26.012;2023-05-03T04:30:16;102599.97;;;11.31;100.00
19777;BME280;10047;42.490;26.012;2023-05-03T04:32:42;102599.84;;;11.19;100.00
19777;BME280;10047;42.490;26.012;2023-05-03T04:35:09;102621.50;;;11.57;100.00
19777;BME280;10047;42.490;26.012;2023-05-03T04:37:37;102626.81;;;11.77;100.00
19777;BME280;10047;42.490;26.012;2023-05-03T04:40:03;102556.72;;;11.37;100.00
19777;BME280;10047;42.490;26.012;2023-05-03T04:42:33;102594.50;;;11.73;100.00
19777;BME280;10047;42.490;26.012;2023-05-03T04:45:00;102566.53;;;13.05;100.00
19777;BME280;10047;42.490;26.012;2023-05-03T04:47:27;102568.19;;;11.77;100.00
19777;BME280;10047;42.490;26.012;2023-05-03T04:49:53;102455.00;;;11.54;100.00
19777;BME280;10047;42.490;26.012;2023-05-03T04:52:18;102513.09;;;11.91;100.00
19777;BME280;10047;42.490;26.012;2023-05-03T04:54:43;102463.75;;;11.83;100.00
19777;BME280;10047;42.490;26.012;2023-05-03T04:57:10;102472.16;;;11.68;100.00
19777;BME280;10047;42.490;26.012;2023-05-03T04:59:35;102525.81;;;11.88;100.00
19777;BME280;10047;42.490;26.012;2023-05-03T05:02:01;102532.84;;;12.17;100.00
19777;BME280;10047;42.490;26.012;2023-05-03T05:04:26;102474.06;;;12.02;100.00
19777;BME280;10047;42.490;26.012;2023-05-03T05:06:52;102496.63;;;11.57;100.00
19777;BME280;10047;42.490;26.012;2023-05-03T05:09:24;102491.81;;;11.87;100.00
19777;BME280;10047;42.490;26.012;2023-05-03T05:11:50;102503.00;;;12.06;100.00
19777;BME280;10047;42.490;26.012;2023-05-03T05:14:16;102512.31;;;11.98;100.00
19777;BME280;10047;42.490;26.012;2023-05-03T05:16:41;102469.88;;;12.09;100.00
19777;BME280;10047;42.490;26.012;2023-05-03T05:19:12;102489.59;;;12.36;100.00
19777;BME280;10047;42.490;26.012;2023-05-03T05:21:38;102502.34;;;12.39;100.00
19777;BME280;10047;42.490;26.012;2023-05-03T05:24:03;102436.72;;;12.06;100.00
19777;BME280;10047;42.490;26.012;2023-05-03T05:26:29;102486.31;;;12.64;100.00
19777;BME280;10047;42.490;26.012;2023-05-03T05:28:55;102419.00;;;12.36;100.00
19777;BME280;10047;42.490;26.012;2023-05-03T05:31:20;102453.09;;;12.55;100.00
19777;BME280;10047;42.490;26.012;2023-05-03T05:33:46;102436.16;;;12.84;100.00
19777;BME280;10047;42.490;26.012;2023-05-03T05:36:12;102416.59;;;12.81;100.00
19777;BME280;10047;42.490;26.012;2023-05-03T05:38:37;102341.59;;;12.34;100.00
19777;BME280;10047;42.490;26.012;2023-05-03T05:41:03;102395.31;;;12.90;100.00
19777;BME280;10047;42.490;26.012;2023-05-03T05:43:28;102316.09;;;12.24;100.00
19777;BME280;10047;42.490;26.012;2023-05-03T05:45:53;102361.25;;;12.74;100.00
19777;BME280;10047;42.490;26.012;2023-05-03T05:48:19;102358.72;;;12.79;100.00
19777;BME280;10047;42.490;26.012;2023-05-03T05:50:45;102314.47;;;12.77;100.00
19777;BME280;10047;42.490;26.012;2023-05-03T05:53:10;102342.59;;;13.16;100.00
19777;BME280;10047;42.490;26.012;2023-05-03T05:55:36;102338.34;;;13.18;100.00
19777;BME280;10047;42.490;26.012;2023-05-03T05:58:01;102340.00;;;12.99;100.00
19777;BME280;10047;42.490;26.012;2023-05-03T06:00:27;102295.72;;;12.66;100.00
19777;BME280;10047;42.490;26.012;2023-05-03T06:02:52;102338.34;;;13.04;100.00
19777;BME280;10047;42.490;26.012;2023-05-03T06:05:19;102336.63;;;13.28;100.00
19777;BME280;10047;42.490;26.012;2023-05-03T06:07:44;102342.56;;;13.25;100.00
19777;BME280;10047;42.490;26.012;2023-05-03T06:10:10;102292.34;;;12.65;100.00
19777;BME280;10047;42.490;26.012;2023-05-03T06:12:36;102273.59;;;12.54;100.00
19777;BME280;10047;42.490;26.012;2023-05-03T06:15:02;102273.63;;;12.69;100.00
19777;BME280;10047;42.490;26.012;2023-05-03T06:17:28;102305.09;;;13.00;100.00
19777;BME280;10047;42.490;26.012;2023-05-03T06:19:53;102284.69;;;12.92;100.00
19777;BME280;10047;42.490;26.012;2023-05-03T06:22:18;102262.56;;;12.73;100.00
19777;BME280;10047;42.490;26.012;2023-05-03T06:24:44;102273.63;;;13.21;100.00
19777;BME280;10047;42.490;26.012;2023-05-03T06:27:09;102199.59;;;12.48;100.00
19777;BME280;10047;42.490;26.012;2023-05-03T06:29:35;102203.84;;;12.76;100.00
19777;BME280;10047;42.490;26.012;2023-05-03T06:32:01;102231.88;;;13.28;100.00
19777;BME280;10047;42.490;26.012;2023-05-03T06:34:26;102173.19;;;12.90;100.00
19777;BME280;10047;42.490;26.012;2023-05-03T06:36:52;102124.72;;;12.72;100.00
19777;BME280;10047;42.490;26.012;2023-05-03T06:39:17;102230.13;;;13.40;100.00
19777;BME280;10047;42.490;26.012;2023-05-03T06:41:43;102244.56;;;13.53;100.00
19777;BME280;10047;42.490;26.012;2023-05-03T06:44:08;102212.25;;;13.37;100.00
19777;BME280;10047;42.490;26.012;2023-05-03T06:46:34;102194.28;;;13.64;100.00
19777;BME280;10047;42.490;26.012;2023-05-03T06:49:00;102103.31;;;13.24;100.00
19777;BME280;10047;42.490;26.012;2023-05-03T06:51:26;102163.56;;;13.67;100.00
19777;BME280;10047;42.490;26.012;2023-05-03T06:53:54;102156.59;;;13.89;100.00
19777;BME280;10047;42.490;26.012;2023-05-03T06:56:24;102114.25;;;13.47;100.00
19777;BME280;10047;42.490;26.012;2023-05-03T06:58:52;102175.44;;;13.80;100.00
19777;BME280;10047;42.490;26.012;2023-05-03T07:01:17;102115.97;;;13.47;100.00
19777;BME280;10047;42.490;26.012;2023-05-03T07:03:45;102118.41;;;13.68;100.00
19777;BME280;10047;42.490;26.012;2023-05-03T07:06:11;102150.28;;;14.38;100.00
19777;BME280;10047;42.490;26.012;2023-05-03T07:08:36;102108.84;;;13.96;100.00
19777;BME280;10047;42.490;26.012;2023-05-03T07:11:01;102128.19;;;14.28;100.00
19777;BME280;10047;42.490;26.012;2023-05-03T07:13:28;102140.06;;;14.40;100.00
19777;BME280;10047;42.490;26.012;2023-05-03T07:15:53;102118.03;;;14.18;100.00
19777;BME280;10047;42.490;26.012;2023-05-03T07:18:19;102074.56;;;14.13;100.00
19777;BME280;10047;42.490;26.012;2023-05-03T07:20:44;102118.44;;;14.68;100.00
19777;BME280;10047;42.490;26.012;2023-05-03T07:23:10;102056.56;;;14.22;100.00
19777;BME280;10047;42.490;26.012;2023-05-03T07:25:36;102105.47;;;14.85;100.00
19777;BME280;10047;42.490;26.012;2023-05-03T07:28:03;102094.56;;;14.66;100.00
19777;BME280;10047;42.490;26.012;2023-05-03T07:30:29;102110.97;;;15.24;100.00
19777;BME280;10047;42.490;26.012;2023-05-03T07:32:54;102116.16;;;14.41;100.00
19777;BME280;10047;42.490;26.012;2023-05-03T07:35:20;102061.06;;;14.84;100.00
19777;BME280;10047;42.490;26.012;2023-05-03T07:37:47;102094.97;;;15.70;100.00
19777;BME280;10047;42.490;26.012;2023-05-03T07:40:13;102043.25;;;15.40;100.00
19777;BME280;10047;42.490;26.012;2023-05-03T07:42:38;102009.28;;;15.25;100.00
19777;BME280;10047;42.490;26.012;2023-05-03T07:45:04;102041.69;;;16.35;100.00
19777;BME280;10047;42.490;26.012;2023-05-03T07:47:30;102015.50;;;16.63;100.00
19777;BME280;10047;42.490;26.012;2023-05-03T07:49:56;102007.81;;;17.76;100.00
19777;BME280;10047;42.490;26.012;2023-05-03T07:52:22;101917.16;;;17.29;100.00
19777;BME280;10047;42.490;26.012;2023-05-03T07:54:47;101926.38;;;16.66;100.00
19777;BME280;10047;42.490;26.012;2023-05-03T07:57:13;101872.66;;;16.14;100.00
19777;BME280;10047;42.490;26.012;2023-05-03T07:59:41;101895.38;;;16.34;100.00
19777;BME280;10047;42.490;26.012;2023-05-03T08:02:06;101811.81;;;16.19;100.00
19777;BME280;10047;42.490;26.012;2023-05-03T08:04:31;101896.53;;;17.32;100.00
19777;BME280;10047;42.490;26.012;2023-05-03T08:07:01;102029.84;;;17.12;100.00
19777;BME280;10047;42.490;26.012;2023-05-03T08:09:27;101943.94;;;16.84;100.00
19777;BME280;10047;42.490;26.012;2023-05-03T08:11:53;101899.03;;;16.64;100.00
19777;BME280;10047;42.490;26.012;2023-05-03T08:14:20;101949.22;;;17.16;100.00
19777;BME280;10047;42.490;26.012;2023-05-03T08:16:46;101879.13;;;17.08;100.00
19777;BME280;10047;42.490;26.012;2023-05-03T08:19:11;101837.34;;;17.00;100.00
19777;BME280;10047;42.490;26.012;2023-05-03T08:21:36;101796.19;;;16.28;100.00
19777;BME280;10047;42.490;26.012;2023-05-03T08:24:02;101891.78;;;17.53;100.00
19777;BME280;10047;42.490;26.012;2023-05-03T08:26:30;101849.53;;;17.92;100.00
19777;BME280;10047;42.490;26.012;2023-05-03T08:28:56;101783.97;;;16.76;100.00
19777;BME280;10047;42.490;26.012;2023-05-03T08:31:21;101826.47;;;18.16;100.00
19777;BME280;10047;42.490;26.012;2023-05-03T08:33:47;101762.84;;;17.63;100.00
19777;BME280;10047;42.490;26.012;2023-05-03T08:36:12;101808.13;;;18.27;100.00
19777;BME280;10047;42.490;26.012;2023-05-03T08:38:38;101749.84;;;17.68;100.00
19777;BME280;10047;42.490;26.012;2023-05-03T08:41:18;101779.91;;;19.29;100.00
19777;BME280;10047;42.490;26.012;2023-05-03T08:43:53;101719.91;;;18.20;100.00
19777;BME280;10047;42.490;26.012;2023-05-03T08:46:19;101650.34;;;18.48;100.00
19777;BME280;10047;42.490;26.012;2023-05-03T08:48:48;101633.63;;;18.09;100.00
19777;BME280;10047;42.490;26.012;2023-05-03T08:51:15;101645.09;;;19.24;100.00
19777;BME280;10047;42.490;26.012;2023-05-03T08:53:41;101595.66;;;19.13;100.00
19777;BME280;10047;42.490;26.012;2023-05-03T08:56:07;101585.63;;;19.05;100.00
19777;BME280;10047;42.490;26.012;2023-05-03T08:58:34;101600.00;;;18.13;100.00
19777;BME280;10047;42.490;26.012;2023-05-03T09:01:08;101645.47;;;18.90;100.00
19777;BME280;10047;42.490;26.012;2023-05-03T09:03:34;101645.38;;;19.84;100.00
19777;BME280;10047;42.490;26.012;2023-05-03T09:06:01;101574.16;;;19.12;100.00
19777;BME280;10047;42.490;26.012;2023-05-03T09:08:27;101614.56;;;19.79;100.00
19777;BME280;10047;42.490;26.012;2023-05-03T09:10:53;101604.75;;;20.09;100.00
19777;BME280;10047;42.490;26.012;2023-05-03T09:13:19;101581.91;;;20.40;100.00
19777;BME280;10047;42.490;26.012;2023-05-03T09:15:54;101546.88;;;19.07;100.00
19777;BME280;10047;42.490;26.012;2023-05-03T09:18:21;101497.22;;;19.01;100.00
19777;BME280;10047;42.490;26.012;2023-05-03T09:20:50;101538.13;;;19.11;100.00
19777;BME280;10047;42.490;26.012;2023-05-03T09:23:34;101743.56;;;19.82;100.00
19777;BME280;10047;42.490;26.012;2023-05-03T09:26:00;101695.50;;;19.57;100.00
19777;BME280;10047;42.490;26.012;2023-05-03T09:28:25;101674.03;;;19.32;100.00
19777;BME280;10047;42.490;26.012;2023-05-03T09:31:03;101631.63;;;19.62;100.00
19777;BME280;10047;42.490;26.012;2023-05-03T09:33:30;101618.88;;;19.57;100.00
19777;BME280;10047;42.490;26.012;2023-05-03T09:36:03;101605.69;;;20.07;100.00
19777;BME280;10047;42.490;26.012;2023-05-03T09:38:33;101555.41;;;20.15;100.00
19777;BME280;10047;42.490;26.012;2023-05-03T09:40:59;101530.28;;;19.37;100.00
19777;BME280;10047;42.490;26.012;2023-05-03T09:43:25;101534.66;;;19.35;100.00
19777;BME280;10047;42.490;26.012;2023-05-03T09:45:51;101525.63;;;19.66;100.00
19777;BME280;10047;42.490;26.012;2023-05-03T09:48:16;101480.84;;;19.02;100.00
19777;BME280;10047;42.490;26.012;2023-05-03T09:50:43;101501.28;;;18.62;100.00
19777;BME280;10047;42.490;26.012;2023-05-03T09:53:08;101450.31;;;18.70;100.00
19777;BME280;10047;42.490;26.012;2023-05-03T09:55:35;101447.84;;;18.44;100.00
19777;BME280;10047;42.490;26.012;2023-05-03T09:58:02;101403.53;;;18.35;100.00
19777;BME280;10047;42.490;26.012;2023-05-03T10:00:40;101446.16;;;18.89;100.00
19777;BME280;10047;42.490;26.012;2023-05-03T10:03:16;101329.28;;;18.24;100.00
19777;BME280;10047;42.490;26.012;2023-05-03T10:05:48;101318.63;;;18.33;100.00
19777;BME280;10047;42.490;26.012;2023-05-03T10:08:23;101359.78;;;18.58;100.00
19777;BME280;10047;42.490;26.012;2023-05-03T10:10:49;101368.56;;;18.52;100.00
19777;BME280;10047;42.490;26.012;2023-05-03T10:13:19;101289.84;;;18.00;100.00
19777;BME280;10047;42.490;26.012;2023-05-03T10:15:45;101182.94;;;17.70;100.00
19777;BME280;10047;42.490;26.012;2023-05-03T10:18:14;101265.72;;;18.68;100.00
19777;BME280;10047;42.490;26.012;2023-05-03T10:20:51;101135.25;;;18.47;100.00
19777;BME280;10047;42.490;26.012;2023-05-03T10:23:19;101132.19;;;18.97;100.00
19777;BME280;10047;42.490;26.012;2023-05-03T10:28:37;100949.88;;;18.45;100.00
19777;BME280;10047;42.490;26.012;2023-05-03T10:31:03;100978.91;;;18.86;100.00
19777;BME280;10047;42.490;26.012;2023-05-03T10:33:30;100943.16;;;18.97;100.00
19777;BME280;10047;42.490;26.012;2023-05-03T10:35:57;100870.41;;;18.36;100.00
19777;BME280;10047;42.490;26.012;2023-05-03T10:38:27;100887.81;;;18.31;100.00
19777;BME280;10047;42.490;26.012;2023-05-03T10:40:54;100900.13;;;18.80;100.00
19777;BME280;10047;42.490;26.012;2023-05-03T10:46:04;100923.59;;;18.93;100.00
19777;BME280;10047;42.490;26.012;2023-05-03T10:48:31;100918.75;;;18.68;100.00
19777;BME280;10047;42.490;26.012;2023-05-03T10:51:30;100902.28;;;18.89;100.00
19777;BME280;10047;42.490;26.012;2023-05-03T10:53:57;100918.03;;;18.83;100.00
19777;BME280;10047;42.490;26.012;2023-05-03T10:56:23;100901.41;;;18.53;100.00
19777;BME280;10047;42.490;26.012;2023-05-03T10:58:49;100896.00;;;18.59;100.00
19777;BME280;10047;42.490;26.012;2023-05-03T11:01:17;100924.84;;;18.84;100.00
19777;BME280;10047;42.490;26.012;2023-05-03T11:06:37;100970.72;;;18.39;100.00
19777;BME280;10047;42.490;26.012;2023-05-03T11:09:06;100932.88;;;18.02;100.00
19777;BME280;10047;42.490;26.012;2023-05-03T11:11:34;100993.84;;;18.20;100.00
19777;BME280;10047;42.490;26.012;2023-05-03T11:14:00;101001.88;;;18.13;100.00
19777;BME280;10047;42.490;26.012;2023-05-03T11:16:25;100982.50;;;18.25;100.00
19777;BME280;10047;42.490;26.012;2023-05-03T11:18:51;101028.47;;;18.34;100.00
19777;BME280;10047;42.490;26.012;2023-05-03T11:21:17;101034.69;;;18.68;100.00
19777;BME280;10047;42.490;26.012;2023-05-03T11:23:43;101012.94;;;18.35;100.00
19777;BME280;10047;42.490;26.012;2023-05-03T11:26:09;101020.44;;;18.21;100.00
19777;BME280;10047;42.490;26.012;2023-05-03T11:28:41;101032.53;;;18.19;100.00
19777;BME280;10047;42.490;26.012;2023-05-03T11:31:11;101021.41;;;17.98;100.00
19777;BME280;10047;42.490;26.012;2023-05-03T11:33:38;101059.19;;;18.18;100.00
19777;BME280;10047;42.490;26.012;2023-05-03T11:36:05;101095.31;;;17.95;100.00
19777;BME280;10047;42.490;26.012;2023-05-03T11:38:32;101155.47;;;17.92;100.00
19777;BME280;10047;42.490;26.012;2023-05-03T11:40:59;101246.69;;;17.62;100.00
19777;BME280;10047;42.490;26.012;2023-05-03T11:43:25;101301.75;;;17.57;100.00
19777;BME280;10047;42.490;26.012;2023-05-03T11:45:54;101405.28;;;17.37;100.00
19777;BME280;10047;42.490;26.012;2023-05-03T11:48:20;101450.47;;;17.70;100.00
19777;BME280;10047;42.490;26.012;2023-05-03T11:53:16;101595.81;;;17.28;100.00
19777;BME280;10047;42.490;26.012;2023-05-03T11:55:47;101653.81;;;17.38;100.00
19777;BME280;10047;42.490;26.012;2023-05-03T11:58:17;101493.25;;;17.47;100.00
19777;BME280;10047;42.490;26.012;2023-05-03T12:00:46;101477.66;;;16.97;100.00
19777;BME280;10047;42.490;26.012;2023-05-03T12:05:48;101606.50;;;16.85;100.00
19777;BME280;10047;42.490;26.012;2023-05-03T12:08:14;101642.25;;;16.61;100.00
19777;BME280;10047;42.490;26.012;2023-05-03T12:10:44;101790.38;;;16.94;100.00
19777;BME280;10047;42.490;26.012;2023-05-03T12:13:10;101770.13;;;16.83;100.00
19777;BME280;10047;42.490;26.012;2023-05-03T12:15:37;101892.84;;;17.43;100.00
19777;BME280;10047;42.490;26.012;2023-05-03T12:18:05;101931.31;;;17.81;100.00
19777;BME280;10047;42.490;26.012;2023-05-03T12:20:32;101882.41;;;17.50;100.00
19777;BME280;10047;42.490;26.012;2023-05-03T12:23:02;101869.00;;;17.70;100.00
19777;BME280;10047;42.490;26.012;2023-05-03T12:25:29;101896.63;;;18.55;100.00
19777;BME280;10047;42.490;26.012;2023-05-03T12:27:57;101855.09;;;18.64;100.00
19777;BME280;10047;42.490;26.012;2023-05-03T12:30:23;101734.84;;;17.82;100.00
19777;BME280;10047;42.490;26.012;2023-05-03T12:32:48;101656.75;;;17.83;100.00
19777;BME280;10047;42.490;26.012;2023-05-03T12:35:14;101617.91;;;18.16;100.00
19777;BME280;10047;42.490;26.012;2023-05-03T12:37:41;101546.59;;;17.94;100.00
19777;BME280;10047;42.490;26.012;2023-05-03T12:40:06;101495.59;;;18.05;100.00
19777;BME280;10047;42.490;26.012;2023-05-03T12:42:32;101446.09;;;17.97;100.00
19777;BME280;10047;42.490;26.012;2023-05-03T12:44:58;101398.41;;;18.11;100.00
19777;BME280;10047;42.490;26.012;2023-05-03T12:47:24;101355.66;;;17.84;100.00
19777;BME280;10047;42.490;26.012;2023-05-03T12:49:50;101327.94;;;17.68;100.00
19777;BME280;10047;42.490;26.012;2023-05-03T12:52:15;101322.69;;;17.94;100.00